createdAt,value
2023-02-24T00:02:06.312Z,7.10
2023-02-24T00:04:40.945Z,7.30
2023-02-24T00:07:11.676Z,8.30
2023-02-24T00:09:40.374Z,6.70
2023-02-24T00:12:13.350Z,5.90
2023-02-24T00:14:44.817Z,6.30
2023-02-24T00:17:14.847Z,7.20
2023-02-24T00:19:43.712Z,7.10
2023-02-24T00:22:12.959Z,7.10
2023-02-24T00:24:42.241Z,7.50
2023-02-24T00:27:13.386Z,6.40
2023-02-24T00:29:42.431Z,6.80
2023-02-24T00:32:13.644Z,6.80
2023-02-24T00:34:43.472Z,5.90
2023-02-24T00:37:12.393Z,7.00
2023-02-24T00:39:42.237Z,6.60
2023-02-24T00:42:12.221Z,6.60
2023-02-24T00:44:45.404Z,5.90
2023-02-24T00:47:17.716Z,6.30
2023-02-24T00:49:46.371Z,7.10
2023-02-24T00:52:20.057Z,7.00
2023-02-24T00:57:20.711Z,6.80
2023-02-24T00:59:51.516Z,6.10
2023-02-24T01:02:20.759Z,5.70
2023-02-24T01:04:51.200Z,6.40
2023-02-24T01:07:19.777Z,6.30
2023-02-24T01:09:51.015Z,6.30
2023-02-24T01:12:22.103Z,6.30
2023-02-24T01:14:52.979Z,7.80
2023-02-24T01:17:22.114Z,6.10
2023-02-24T01:19:50.734Z,6.20
2023-02-24T01:22:20.834Z,6.20
2023-02-24T01:24:49.626Z,6.90
2023-02-24T01:27:19.571Z,6.50
2023-02-24T01:29:49.167Z,5.70
2023-02-24T01:32:21.112Z,5.80
2023-02-24T01:34:53.402Z,6.40
2023-02-24T01:37:22.102Z,6.90
2023-02-24T01:39:51.204Z,5.60
2023-02-24T01:42:22.054Z,6.10
2023-02-24T01:44:52.455Z,6.90
2023-02-24T01:47:23.504Z,5.90
2023-02-24T01:49:55.060Z,6.30
2023-02-24T01:52:38.292Z,6.60
2023-02-24T01:55:24.670Z,6.40
2023-02-24T01:57:54.503Z,5.80
2023-02-24T02:00:38.378Z,7.00
2023-02-24T02:03:18.728Z,5.50
2023-02-24T02:05:48.824Z,6.40
2023-02-24T02:08:19.730Z,5.50
2023-02-24T02:10:48.253Z,5.50
2023-02-24T02:13:21.832Z,5.20
2023-02-24T02:18:59.239Z,5.50
2023-02-24T02:21:36.838Z,5.90
2023-02-24T02:24:27.133Z,5.00
2023-02-24T02:27:07.036Z,5.80
2023-02-24T02:29:47.425Z,6.40
2023-02-24T02:32:22.218Z,5.50
2023-02-24T02:35:19.418Z,5.20
2023-02-24T02:37:57.314Z,5.00
2023-02-24T02:41:03.244Z,5.20
2023-02-24T02:43:39.779Z,5.40
2023-02-24T02:46:35.926Z,4.80
2023-02-24T02:49:21.197Z,5.10
2023-02-24T02:51:57.546Z,5.00
2023-02-24T02:54:45.597Z,5.30
2023-02-24T02:57:21.657Z,5.20
2023-02-24T03:00:21.670Z,6.00
2023-02-24T03:03:03.528Z,4.40
2023-02-24T03:05:46.697Z,4.90
2023-02-24T03:08:25.968Z,4.80
2023-02-24T03:11:00.517Z,5.40
2023-02-24T03:13:37.021Z,4.80
2023-02-24T03:16:06.793Z,6.40
2023-02-24T03:18:41.341Z,5.10
2023-02-24T03:21:16.955Z,5.00
2023-02-24T03:23:50.262Z,4.90
2023-02-24T03:28:59.524Z,5.10
2023-02-24T03:31:35.926Z,5.60
2023-02-24T03:34:43.491Z,4.20
2023-02-24T03:37:12.551Z,5.10
2023-02-24T03:39:41.480Z,4.40
2023-02-24T03:42:19.178Z,4.80
2023-02-24T03:44:50.029Z,5.00
2023-02-24T03:47:20.757Z,5.00
2023-02-24T03:49:50.581Z,4.50
2023-02-24T03:52:29.299Z,4.50
2023-02-24T03:55:23.893Z,6.20
2023-02-24T03:58:32.376Z,4.70
2023-02-24T04:01:10.886Z,4.70
2023-02-24T04:04:22.580Z,4.90
2023-02-24T04:07:17.146Z,5.40
2023-02-24T04:10:20.329Z,4.70
2023-02-24T04:12:52.731Z,4.70
2023-02-24T04:15:44.100Z,8.80
2023-02-24T04:18:19.774Z,5.20
2023-02-24T04:20:53.562Z,5.00
2023-02-24T04:23:31.975Z,5.10
2023-02-24T04:26:01.924Z,5.20
2023-02-24T04:28:31.519Z,5.00
2023-02-24T04:31:10.360Z,5.10
2023-02-24T04:33:40.567Z,5.00
2023-02-24T04:36:13.071Z,5.20
2023-02-24T04:38:42.241Z,5.20
2023-02-24T04:41:11.163Z,5.00
2023-02-24T04:43:41.159Z,5.10
2023-02-24T04:46:09.483Z,5.40
2023-02-24T04:48:39.253Z,5.30
2023-02-24T04:51:08.456Z,4.80
2023-02-24T04:53:38.274Z,5.20
2023-02-24T04:56:10.130Z,4.80
2023-02-24T04:58:40.076Z,5.50
2023-02-24T05:01:13.540Z,5.40
2023-02-24T05:03:45.355Z,5.80
2023-02-24T05:06:17.949Z,4.60
2023-02-24T05:08:46.293Z,5.70
2023-02-24T05:11:16.519Z,5.00
2023-02-24T05:13:46.158Z,5.10
2023-02-24T05:16:18.193Z,4.90
2023-02-24T05:18:46.683Z,5.50
2023-02-24T05:21:35.751Z,4.90
2023-02-24T05:24:07.327Z,4.90
2023-02-24T05:26:38.171Z,5.30
2023-02-24T05:29:07.034Z,5.40
2023-02-24T05:31:37.241Z,5.70
2023-02-24T05:34:08.025Z,5.60
2023-02-24T05:36:40.548Z,4.90
2023-02-24T05:39:14.792Z,6.00
2023-02-24T05:41:43.484Z,5.70
2023-02-24T05:44:16.030Z,5.80
2023-02-24T05:46:46.874Z,5.00
2023-02-24T05:49:24.021Z,5.20
2023-02-24T05:51:55.520Z,5.20
2023-02-24T05:54:33.030Z,6.50
2023-02-24T05:57:14.140Z,6.30
2023-02-24T05:59:46.076Z,5.00
2023-02-24T06:02:16.439Z,6.40
2023-02-24T06:04:55.821Z,5.40
2023-02-24T06:07:29.247Z,6.10
2023-02-24T06:10:00.238Z,5.90
2023-02-24T06:12:34.201Z,6.10
2023-02-24T06:15:08.058Z,6.70
2023-02-24T06:17:37.006Z,5.80
2023-02-24T06:20:15.207Z,6.50
2023-02-24T06:22:43.419Z,6.60
2023-02-24T06:25:12.213Z,7.00
2023-02-24T06:27:40.668Z,7.70
2023-02-24T06:30:10.585Z,7.30
2023-02-24T06:32:39.368Z,8.40
2023-02-24T06:35:08.805Z,10.10
2023-02-24T06:37:37.384Z,6.20
2023-02-24T06:40:16.083Z,6.60
2023-02-24T06:42:54.307Z,6.50
2023-02-24T06:45:24.535Z,6.20
2023-02-24T06:47:53.434Z,6.00
2023-02-24T06:50:22.228Z,6.40
2023-02-24T06:52:55.102Z,6.40
2023-02-24T06:55:26.442Z,6.50
2023-02-24T06:57:57.922Z,6.80
2023-02-24T07:00:40.880Z,7.20
2023-02-24T07:03:17.364Z,7.20
2023-02-24T07:05:50.594Z,6.50
2023-02-24T07:08:24.172Z,6.10
2023-02-24T07:10:54.232Z,6.30
2023-02-24T07:13:28.903Z,7.00
2023-02-24T07:16:06.965Z,6.90
2023-02-24T07:18:41.796Z,8.60
2023-02-24T07:21:16.515Z,6.60
2023-02-24T07:23:45.817Z,6.50
2023-02-24T07:26:19.140Z,7.00
2023-02-24T07:28:48.247Z,6.80
2023-02-24T07:31:19.832Z,6.40
2023-02-24T07:33:48.878Z,6.40
2023-02-24T07:36:23.397Z,6.70
2023-02-24T07:38:54.043Z,6.60
2023-02-24T07:41:23.681Z,7.40
2023-02-24T07:43:56.354Z,6.70
2023-02-24T07:49:00.034Z,6.90
2023-02-24T07:51:29.895Z,6.50
2023-02-24T07:54:01.468Z,5.60
2023-02-24T07:56:31.502Z,7.20
2023-02-24T07:59:03.013Z,5.70
2023-02-24T08:01:39.210Z,5.40
2023-02-24T08:04:08.976Z,7.00
2023-02-24T08:06:46.090Z,6.60
2023-02-24T08:09:18.521Z,5.90
2023-02-24T08:11:52.606Z,5.70
2023-02-24T08:14:32.936Z,5.70
2023-02-24T08:17:05.573Z,5.90
2023-02-24T08:19:39.915Z,5.30
2023-02-24T08:22:20.144Z,6.40
2023-02-24T08:24:52.882Z,6.40
2023-02-24T08:27:25.947Z,6.70
2023-02-24T08:29:58.381Z,5.60
2023-02-24T08:32:38.421Z,6.80
2023-02-24T08:35:15.110Z,5.50
2023-02-24T08:37:47.665Z,5.50
2023-02-24T08:40:33.423Z,5.40
2023-02-24T08:43:22.467Z,5.30
2023-02-24T08:46:25.820Z,5.50
2023-02-24T08:49:01.151Z,5.00
2023-02-24T08:51:35.690Z,6.40
2023-02-24T08:54:15.774Z,5.40
2023-02-24T08:56:49.382Z,5.80
2023-02-24T08:59:37.695Z,4.90
2023-02-24T09:02:24.628Z,5.00
2023-02-24T09:05:04.079Z,5.20
2023-02-24T09:07:37.632Z,5.40
2023-02-24T09:10:11.798Z,5.20
2023-02-24T09:12:41.595Z,5.90
2023-02-24T09:15:17.528Z,7.10
2023-02-24T09:17:46.343Z,7.00
2023-02-24T09:20:43.803Z,4.90
2023-02-24T09:23:20.453Z,5.70
2023-02-24T09:25:54.720Z,5.60
2023-02-24T09:28:27.662Z,6.20
2023-02-24T09:31:05.069Z,5.00
2023-02-24T09:33:41.969Z,4.20
2023-02-24T09:36:27.993Z,4.90
2023-02-24T09:39:00.793Z,5.10
2023-02-24T09:44:37.387Z,5.00
2023-02-24T09:47:20.206Z,4.70
2023-02-24T09:49:59.339Z,4.80
2023-02-24T09:52:43.109Z,6.30
2023-02-24T09:55:26.642Z,5.70
2023-02-24T09:58:31.928Z,4.90
2023-02-24T10:01:34.456Z,5.00
2023-02-24T10:04:21.501Z,5.20
2023-02-24T10:07:03.253Z,4.80
2023-02-24T10:09:42.827Z,5.10
2023-02-24T10:12:20.113Z,5.10
2023-02-24T10:15:00.543Z,4.70
2023-02-24T10:17:40.445Z,5.60
2023-02-24T10:20:28.760Z,5.00
2023-02-24T10:23:29.807Z,6.10
2023-02-24T10:26:51.347Z,5.00
2023-02-24T10:29:39.730Z,5.30
2023-02-24T10:32:24.086Z,6.00
2023-02-24T10:34:53.585Z,4.70
2023-02-24T10:37:29.039Z,4.90
2023-02-24T10:40:10.277Z,4.00
2023-02-24T10:42:49.023Z,4.50
2023-02-24T10:45:24.806Z,5.50
2023-02-24T10:47:57.418Z,4.60
2023-02-24T10:50:54.870Z,5.20
2023-02-24T10:53:41.206Z,5.40
2023-02-24T10:56:27.193Z,4.80
2023-02-24T10:59:24.894Z,4.80
2023-02-24T11:01:59.391Z,5.20
2023-02-24T11:05:03.870Z,4.60
2023-02-24T11:10:41.605Z,5.30
2023-02-24T11:13:35.857Z,5.00
2023-02-24T11:16:26.675Z,4.90
2023-02-24T11:18:57.445Z,4.80
2023-02-24T11:21:27.650Z,4.80
2023-02-24T11:24:03.062Z,4.60
2023-02-24T11:26:38.007Z,4.90
2023-02-24T11:29:58.566Z,5.00
2023-02-24T11:33:04.606Z,4.90
2023-02-24T11:35:56.952Z,5.40
2023-02-24T11:38:42.533Z,5.80
2023-02-24T11:41:41.251Z,4.80
2023-02-24T11:44:35.052Z,5.70
2023-02-24T11:47:09.984Z,4.90
2023-02-24T11:49:48.603Z,5.10
2023-02-24T11:52:22.821Z,5.60
2023-02-24T11:54:56.873Z,5.00
2023-02-24T11:57:45.789Z,5.20
2023-02-24T12:00:29.635Z,6.20
2023-02-24T12:05:39.322Z,4.90
2023-02-24T12:08:32.027Z,5.60
2023-02-24T12:11:33.884Z,5.50
2023-02-24T12:14:02.160Z,5.80
2023-02-24T12:16:35.894Z,6.20
2023-02-24T12:21:48.801Z,5.70
2023-02-24T12:24:17.398Z,5.60
2023-02-24T12:27:01.479Z,7.30
2023-02-24T12:30:06.741Z,6.60
2023-02-24T12:32:52.354Z,5.60
2023-02-24T12:35:53.157Z,5.90
2023-02-24T12:38:27.788Z,5.30
2023-02-24T12:41:18.827Z,5.90
2023-02-24T12:44:06.098Z,5.30
2023-02-24T12:46:37.615Z,6.30
2023-02-24T12:49:18.125Z,7.50
2023-02-24T12:51:54.702Z,6.30
2023-02-24T12:54:49.777Z,5.50
2023-02-24T12:57:34.130Z,6.50
2023-02-24T13:00:15.038Z,6.00
2023-02-24T13:03:10.402Z,6.50
2023-02-24T13:05:59.758Z,5.70
2023-02-24T13:08:40.534Z,6.00
2023-02-24T13:11:59.273Z,6.50
2023-02-24T13:14:41.254Z,6.70
2023-02-24T13:17:12.824Z,7.20
2023-02-24T13:19:43.762Z,6.40
2023-02-24T13:22:12.140Z,6.10
2023-02-24T13:24:44.815Z,6.00
2023-02-24T13:27:13.405Z,5.80
2023-02-24T13:29:54.493Z,6.80
2023-02-24T13:32:25.892Z,6.40
2023-02-24T13:34:54.655Z,6.90
2023-02-24T13:37:34.867Z,6.10
2023-02-24T13:40:26.710Z,6.70
2023-02-24T13:42:58.460Z,6.00
2023-02-24T13:45:31.276Z,6.70
2023-02-24T13:48:41.079Z,5.90
2023-02-24T13:51:26.459Z,5.80
2023-02-24T13:54:23.606Z,5.70
2023-02-24T13:57:16.538Z,6.60
2023-02-24T14:00:13.281Z,5.40
2023-02-24T14:02:44.394Z,6.10
2023-02-24T14:05:36.014Z,6.30
2023-02-24T14:08:05.338Z,5.50
2023-02-24T14:10:36.341Z,6.50
2023-02-24T14:13:08.556Z,5.70
2023-02-24T14:15:42.156Z,6.00
2023-02-24T14:18:19.434Z,6.30
2023-02-24T14:20:48.039Z,6.30
2023-02-24T14:23:29.256Z,6.00
2023-02-24T14:26:06.410Z,6.60
2023-02-24T14:28:37.772Z,6.20
2023-02-24T14:31:15.590Z,6.60
2023-02-24T14:33:45.587Z,7.00
2023-02-24T14:36:18.800Z,6.80
2023-02-24T14:38:47.458Z,7.10
2023-02-24T14:41:27.855Z,7.10
2023-02-24T14:43:56.812Z,7.30
2023-02-24T14:46:25.548Z,6.60
2023-02-24T14:48:56.396Z,6.00
2023-02-24T14:51:36.455Z,7.50
2023-02-24T14:54:13.365Z,7.00
2023-02-24T14:56:42.260Z,7.30
2023-02-24T14:59:39.197Z,6.70
2023-02-24T15:02:19.216Z,8.40
2023-02-24T15:04:48.041Z,7.30
2023-02-24T15:07:21.444Z,6.50
2023-02-24T15:09:51.977Z,9.80
2023-02-24T15:12:23.229Z,7.80
2023-02-24T15:14:55.108Z,7.00
2023-02-24T15:17:23.971Z,7.20
2023-02-24T15:19:55.188Z,8.20
2023-02-24T15:22:28.133Z,6.60
2023-02-24T15:25:16.661Z,7.60
2023-02-24T15:28:02.083Z,7.90
2023-02-24T15:30:40.236Z,7.70
2023-02-24T15:33:21.217Z,8.80
2023-02-24T15:35:54.608Z,8.00
2023-02-24T15:38:26.066Z,7.10
2023-02-24T15:41:01.008Z,7.90
2023-02-24T15:43:37.441Z,8.50
2023-02-24T15:46:15.720Z,7.60
2023-02-24T15:48:47.233Z,8.50
2023-02-24T15:51:37.332Z,8.00
2023-02-24T15:54:12.957Z,8.50
2023-02-24T15:56:42.848Z,8.50
2023-02-24T15:59:15.261Z,8.90
2023-02-24T16:01:43.955Z,9.40
2023-02-24T16:04:12.324Z,9.00
2023-02-24T16:06:44.101Z,8.70
2023-02-24T16:09:15.201Z,9.00
2023-02-24T16:11:47.038Z,8.00
2023-02-24T16:14:17.945Z,8.20
2023-02-24T16:16:46.374Z,8.80
2023-02-24T16:19:15.967Z,8.10
2023-02-24T16:21:44.479Z,10.20
2023-02-24T16:24:13.026Z,8.50
2023-02-24T16:26:41.915Z,8.70
2023-02-24T16:29:14.886Z,9.40
2023-02-24T16:31:43.241Z,9.00
2023-02-24T16:34:15.932Z,7.60
2023-02-24T16:36:44.463Z,8.60
2023-02-24T16:39:14.387Z,9.20
2023-02-24T16:41:42.764Z,9.20
2023-02-24T16:44:11.359Z,9.50
2023-02-24T16:46:44.036Z,9.00
2023-02-24T16:49:19.275Z,8.10
2023-02-24T16:51:47.675Z,7.60
2023-02-24T16:54:15.941Z,8.90
2023-02-24T16:56:45.548Z,7.60
2023-02-24T16:59:14.388Z,7.70
2023-02-24T17:01:43.130Z,7.80
2023-02-24T17:04:13.620Z,7.80
2023-02-24T17:06:41.857Z,8.60
2023-02-24T17:09:10.253Z,8.30
2023-02-24T17:11:38.523Z,8.50
2023-02-24T17:14:06.925Z,8.80
2023-02-24T17:16:39.667Z,8.30
2023-02-24T17:19:08.900Z,8.30
2023-02-24T17:21:40.769Z,9.40
2023-02-24T17:24:20.231Z,10.40
2023-02-24T17:26:48.590Z,9.10
2023-02-24T17:29:16.970Z,9.50
2023-02-24T17:31:45.887Z,9.50
2023-02-24T17:34:14.351Z,9.90
2023-02-24T17:36:42.835Z,9.00
2023-02-24T17:39:11.290Z,9.10
2023-02-24T17:41:39.701Z,8.70
2023-02-24T17:44:08.089Z,8.90
2023-02-24T17:46:36.953Z,9.00
2023-02-24T17:49:05.577Z,8.20
2023-02-24T17:51:33.956Z,8.80
2023-02-24T17:54:02.440Z,8.70
2023-02-24T17:56:31.238Z,9.30
2023-02-24T17:59:01.179Z,9.20
2023-02-24T18:01:29.771Z,9.50
2023-02-24T18:03:58.237Z,9.50
2023-02-24T18:06:26.922Z,9.50
2023-02-24T18:08:55.310Z,10.00
2023-02-24T18:11:23.485Z,10.50
2023-02-24T18:13:52.890Z,11.00
2023-02-24T18:16:22.033Z,11.70
2023-02-24T18:18:50.995Z,9.90
2023-02-24T18:21:19.805Z,10.00
2023-02-24T18:23:49.907Z,11.20
2023-02-24T18:26:18.912Z,10.40
2023-02-24T18:28:47.294Z,8.90
2023-02-24T18:31:19.224Z,10.60
2023-02-24T18:33:48.240Z,9.40
2023-02-24T18:36:17.875Z,9.50
2023-02-24T18:38:46.766Z,9.70
2023-02-24T18:41:21.300Z,9.50
2023-02-24T18:43:52.549Z,10.30
2023-02-24T18:46:22.548Z,10.50
2023-02-24T18:48:51.689Z,9.70
2023-02-24T18:51:23.536Z,10.90
2023-02-24T18:53:53.065Z,9.80
2023-02-24T18:56:26.877Z,10.00
2023-02-24T18:58:57.400Z,11.70
2023-02-24T19:01:30.088Z,10.00
2023-02-24T19:03:59.135Z,10.90
2023-02-24T19:06:29.493Z,12.60
2023-02-24T19:09:21.760Z,10.40
2023-02-24T19:11:51.103Z,13.40
2023-02-24T19:14:19.409Z,13.40
2023-02-24T19:16:47.897Z,14.60
2023-02-24T19:19:16.837Z,14.00
2023-02-24T19:21:45.795Z,12.80
2023-02-24T19:24:14.791Z,14.60
2023-02-24T19:26:47.707Z,15.40
2023-02-24T19:29:17.393Z,17.20
2023-02-24T19:31:46.044Z,14.90
2023-02-24T19:34:15.593Z,14.40
2023-02-24T19:36:43.874Z,20.70
2023-02-24T19:39:15.029Z,13.00
2023-02-24T19:41:44.120Z,15.60
2023-02-24T19:44:13.040Z,13.80
2023-02-24T19:46:43.365Z,13.20
2023-02-24T19:49:14.835Z,13.00
2023-02-24T19:51:43.809Z,13.00
2023-02-24T19:54:14.004Z,12.20
2023-02-24T19:56:42.417Z,13.50
2023-02-24T19:59:11.540Z,15.10
2023-02-24T20:01:39.874Z,14.50
2023-02-24T20:04:09.034Z,11.50
2023-02-24T20:06:40.456Z,12.20
2023-02-24T20:09:11.494Z,12.40
2023-02-24T20:11:40.339Z,11.30
2023-02-24T20:14:10.545Z,11.30
2023-02-24T20:16:40.489Z,12.10
2023-02-24T20:19:10.053Z,11.70
2023-02-24T20:21:39.251Z,12.20
2023-02-24T20:24:13.391Z,11.40
2023-02-24T20:26:47.255Z,13.00
2023-02-24T20:29:18.427Z,14.10
2023-02-24T20:31:47.959Z,12.30
2023-02-24T20:34:16.979Z,15.50
2023-02-24T20:36:46.032Z,13.40
2023-02-24T20:39:14.757Z,12.90
2023-02-24T20:41:43.956Z,13.30
2023-02-24T20:44:13.233Z,15.20
2023-02-24T20:46:42.674Z,12.20
2023-02-24T20:49:14.738Z,12.90
2023-02-24T20:51:43.787Z,13.40
2023-02-24T20:54:13.444Z,15.00
2023-02-24T20:56:43.700Z,12.90
2023-02-24T20:59:22.188Z,13.20
2023-02-24T21:01:51.156Z,12.70
2023-02-24T21:04:21.544Z,11.70
2023-02-24T21:06:52.024Z,16.30
2023-02-24T21:09:20.311Z,14.50
2023-02-24T21:11:48.821Z,13.90
2023-02-24T21:14:17.694Z,13.70
2023-02-24T21:16:46.810Z,13.10
2023-02-24T21:19:15.392Z,10.90
2023-02-24T21:21:43.965Z,10.50
2023-02-24T21:24:12.358Z,10.40
2023-02-24T21:26:40.734Z,10.60
2023-02-24T21:29:09.016Z,11.80
2023-02-24T21:31:37.495Z,11.80
2023-02-24T21:34:06.317Z,11.20
2023-02-24T21:36:34.572Z,11.80
2023-02-24T21:39:03.174Z,11.20
2023-02-24T21:41:31.789Z,12.20
2023-02-24T21:44:00.805Z,12.10
2023-02-24T21:46:30.454Z,12.60
2023-02-24T21:48:59.676Z,14.30
2023-02-24T21:51:29.429Z,12.50
2023-02-24T21:53:58.407Z,14.10
2023-02-24T21:56:29.431Z,14.00
2023-02-24T21:59:01.914Z,13.80
2023-02-24T22:01:39.490Z,15.00
2023-02-24T22:04:11.071Z,16.10
2023-02-24T22:06:41.965Z,14.60
2023-02-24T22:09:11.209Z,12.20
2023-02-24T22:11:41.205Z,13.50
2023-02-24T22:14:14.113Z,14.30
2023-02-24T22:16:43.265Z,12.80
2023-02-24T22:19:12.250Z,12.50
2023-02-24T22:21:42.624Z,13.70
2023-02-24T22:24:13.971Z,12.60
2023-02-24T22:26:43.193Z,11.30
2023-02-24T22:29:11.997Z,12.00
2023-02-24T22:31:43.916Z,13.60
2023-02-24T22:34:14.895Z,12.30
2023-02-24T22:36:43.616Z,14.10
2023-02-24T22:39:16.754Z,11.30
2023-02-24T22:41:46.916Z,11.40
2023-02-24T22:44:19.398Z,12.40
2023-02-24T22:46:48.408Z,12.00
2023-02-24T22:49:17.455Z,14.50
2023-02-24T22:51:45.949Z,12.80
2023-02-24T22:54:14.779Z,13.40
2023-02-24T22:56:43.741Z,11.90
2023-02-24T22:59:12.764Z,11.70
2023-02-24T23:01:43.892Z,11.30
2023-02-24T23:04:17.267Z,10.80
2023-02-24T23:09:20.106Z,12.40
2023-02-24T23:11:49.112Z,11.20
2023-02-24T23:14:17.611Z,12.10
2023-02-24T23:16:47.510Z,11.60
2023-02-24T23:19:18.025Z,12.70
2023-02-24T23:21:49.859Z,13.00
2023-02-24T23:24:20.020Z,13.70
2023-02-24T23:26:54.767Z,13.70
2023-02-24T23:29:24.439Z,14.10
2023-02-24T23:31:53.595Z,13.80
2023-02-24T23:34:22.074Z,13.90
2023-02-24T23:36:51.077Z,12.60
2023-02-24T23:39:24.049Z,13.70
2023-02-24T23:41:56.985Z,13.90
2023-02-24T23:44:26.068Z,13.40
2023-02-24T23:46:55.290Z,15.90
2023-02-24T23:49:24.288Z,13.20
2023-02-24T23:51:52.738Z,14.60
2023-02-24T23:54:21.121Z,15.90
2023-02-24T23:56:54.417Z,15.10
2023-02-24T23:59:23.170Z,16.80
